Time;durP1;ratioP1;P1;durP2;ratioP2;P2;SDS_P1;SDS_P2;PMS_P1;PMS_P2;Temp;Humidity;BMP_temperature;BMP_pressure;BME280_temperature;BME280_humidity;BME280_pressure;Samples;Min_cycle;Max_cycle;Signal;HPM_P1;HPM_P2
2023/03/12 00:01:21;;;;;;;;;9.25;7.00;;;;;1.67;58.76;98906.69;6332846;20;1821218;-57
2023/03/12 00:03:51;;;;;;;;;7.25;5.00;;;;;1.65;58.85;98910.31;6331462;20;1812784;-56
2023/03/12 00:06:21;;;;;;;;;6.25;6.00;;;;;1.67;59.02;98919.06;6334264;20;1815945;-55
2023/03/12 00:08:49;;;;;;;;;8.50;6.00;;;;;1.65;58.96;98920.88;6313424;20;2760812;-54
2023/03/12 00:11:20;;;;;;;;;5.00;5.00;;;;;1.65;58.04;98920.88;6312296;20;1821197;-52
2023/03/12 00:13:51;;;;;;;;;6.00;6.00;;;;;1.51;57.79;98922.25;6331764;20;1823254;-55
2023/03/12 00:16:21;;;;;;;;;6.25;6.25;;;;;1.54;58.23;98927.44;6334544;20;1813957;-56
2023/03/12 00:18:53;;;;;;;;;7.00;5.75;;;;;1.57;57.43;98933.53;6333626;20;1815958;-55
2023/03/12 00:21:23;;;;;;;;;6.50;6.50;;;;;1.56;57.40;98931.81;6334135;20;1822637;-55
2023/03/12 00:23:52;;;;;;;;;6.00;4.67;;;;;1.62;56.86;98937.75;6314810;20;3464588;-55
2023/03/12 00:26:22;;;;;;;;;13.25;6.00;;;;;1.61;56.55;98945.75;6300673;20;1833696;-56
2023/03/12 00:28:51;;;;;;;;;6.00;6.00;;;;;1.73;56.65;98950.56;6315782;20;3461761;-55
2023/03/12 00:31:27;;;;;;;;;4.75;4.75;;;;;1.57;56.20;98944.13;6329661;20;1824288;-56
2023/03/12 00:33:56;;;;;;;;;5.00;5.00;;;;;1.63;56.08;98941.25;6333795;20;1825376;-52
2023/03/12 00:36:28;;;;;;;;;4.50;4.50;;;;;1.53;56.18;98944.25;6315567;20;2754452;-56
2023/03/12 00:38:58;;;;;;;;;9.00;6.00;;;;;1.53;56.30;98938.94;6316485;20;3469034;-56
2023/03/12 00:41:27;;;;;;;;;7.33;6.67;;;;;1.44;56.57;98944.56;6279998;20;3443974;-56
2023/03/12 00:43:57;;;;;;;;;3.75;3.75;;;;;1.51;57.33;98961.94;6332632;20;1825340;-54
2023/03/12 00:46:25;;;;;;;;;5.50;5.50;;;;;1.47;56.73;98960.31;6331550;20;1819606;-54
2023/03/12 00:48:53;;;;;;;;;6.00;5.00;;;;;1.60;56.46;98958.09;6314453;20;3463872;-54
2023/03/12 00:51:21;;;;;;;;;5.00;5.00;;;;;1.53;56.63;98967.19;6281382;20;3472127;-56
2023/03/12 00:53:50;;;;;;;;;5.75;5.25;;;;;1.59;56.80;98963.44;6298153;20;1814875;-56
2023/03/12 00:56:18;;;;;;;;;5.75;5.00;;;;;1.58;57.10;98972.28;6332944;20;1812825;-56
2023/03/12 00:58:47;;;;;;;;;6.50;6.50;;;;;1.49;57.31;98966.41;6332729;20;1814899;-55
2023/03/12 01:01:15;;;;;;;;;6.25;4.50;;;;;1.15;57.85;98973.84;6332483;20;1825148;-56
2023/03/12 01:03:45;;;;;;;;;6.00;3.75;;;;;1.25;57.39;98975.25;6332599;20;1825378;-55
2023/03/12 01:06:13;;;;;;;;;5.50;5.25;;;;;1.34;57.57;98977.53;6332751;20;1824320;-53
2023/03/12 01:08:42;;;;;;;;;6.00;6.00;;;;;1.29;58.21;98985.66;6333225;20;1816985;-56
2023/03/12 01:11:20;;;;;;;;;5.00;5.00;;;;;1.24;58.11;98984.09;6330338;20;1825286;-54
2023/03/12 01:13:48;;;;;;;;;5.00;5.00;;;;;1.06;59.13;98989.09;6314240;20;3472127;-54
2023/03/12 01:16:16;;;;;;;;;5.00;5.00;;;;;1.15;58.89;98992.34;6300368;20;1816968;-54
2023/03/12 01:18:45;;;;;;;;;7.00;6.50;;;;;1.19;58.93;98997.47;6330524;20;1819132;-54
2023/03/12 01:21:13;;;;;;;;;5.00;5.00;;;;;1.09;59.62;98985.50;6312517;20;3470461;-55
2023/03/12 01:23:40;;;;;;;;;6.00;6.00;;;;;1.08;59.34;98989.91;6282659;20;3463867;-57
2023/03/12 01:26:09;;;;;;;;;6.50;6.50;;;;;0.98;59.40;98983.22;6331180;20;1815905;-54
2023/03/12 01:28:38;;;;;;;;;5.50;5.50;;;;;1.07;59.68;98984.66;6331530;20;1824913;-55
2023/03/12 01:31:13;;;;;;;;;6.50;4.25;;;;;0.96;59.63;98986.81;6330780;20;1820977;-57
2023/03/12 01:33:42;;;;;;;;;9.33;8.00;;;;;1.09;59.64;98989.00;6313010;20;3459698;-53
2023/03/12 01:36:30;;;;;;;;;7.50;5.00;;;;;0.94;59.76;98992.16;6331442;20;1819961;-55
2023/03/12 01:38:59;;;;;;;;;7.25;7.25;;;;;0.89;60.67;98988.78;6331183;20;1819017;-57
2023/03/12 01:41:33;;;;;;;;;7.33;5.00;;;;;1.05;59.98;98995.31;6311011;20;3456540;-52
2023/03/12 01:44:03;;;;;;;;;5.00;5.00;;;;;1.01;60.37;98998.97;6313723;20;3462855;-55
2023/03/12 01:46:44;;;;;;;;;9.00;7.33;;;;;1.00;60.86;98999.88;6283794;20;3434658;-55
2023/03/12 01:49:33;;;;;;;;;7.00;6.00;;;;;0.86;62.09;99010.03;6313144;20;2747267;-54
2023/03/12 01:52:14;;;;;;;;;13.00;9.00;;;;;0.82;62.93;99014.56;6308130;20;2763824;-53
2023/03/12 01:55:08;;;;;;;;;13.00;12.50;;;;;0.67;63.94;99009.78;6279110;20;2786774;-53
2023/03/12 01:57:49;;;;;;;;;12.50;8.75;;;;;0.58;65.41;99010.94;6296471;20;1811576;-55
2023/03/12 02:00:24;;;;;;;;;9.33;9.33;;;;;0.68;65.49;99015.94;6311504;20;3475252;-55
2023/03/12 02:02:58;;;;;;;;;9.00;9.00;;;;;0.47;66.43;99018.34;6280548;20;3475786;-48
2023/03/12 02:06:01;;;;;;;;;19.25;10.75;;;;;0.56;66.51;99018.06;6296653;20;1839762;-52
2023/03/12 02:08:29;;;;;;;;;9.50;9.50;;;;;0.53;67.67;99023.44;6309477;20;2766955;-49
2023/03/12 02:10:57;;;;;;;;;13.00;8.67;;;;;0.61;67.94;99021.41;6310505;20;3475675;-52
2023/03/12 02:13:25;;;;;;;;;10.00;8.50;;;;;0.52;68.65;99026.97;6282073;20;2763832;-49
2023/03/12 02:15:53;;;;;;;;;13.50;9.00;;;;;0.32;70.59;99030.25;6279904;20;2752364;-56
2023/03/12 02:18:21;;;;;;;;;8.00;8.00;;;;;0.20;71.47;99026.19;6311050;20;3453449;-55
2023/03/12 02:21:26;;;;;;;;;8.67;8.67;;;;;0.20;72.37;99034.13;6310685;20;3462751;-54
2023/03/12 02:24:29;;;;;;;;;12.50;9.00;;;;;0.19;72.01;99029.75;6310395;20;2769023;-54
2023/03/12 02:26:58;;;;;;;;;11.00;10.00;;;;;0.15;72.64;99033.38;6278982;20;2769116;-51
2023/03/12 02:29:32;;;;;;;;;9.00;9.00;;;;;0.18;72.63;99037.72;6300885;20;1825421;-49
2023/03/12 02:32:03;;;;;;;;;10.00;10.00;;;;;0.14;73.42;99051.94;6307925;20;2779519;-54
2023/03/12 02:34:31;;;;;;;;;11.00;9.33;;;;;0.01;73.85;99046.13;6307637;20;3486727;-52
2023/03/12 02:36:59;;;;;;;;;9.25;9.25;;;;;0.07;73.86;99053.88;6327595;20;1803411;-53
2023/03/12 02:39:28;;;;;;;;;12.50;9.00;;;;;0.16;72.85;99058.88;6332140;20;1826465;-49
2023/03/12 02:41:59;;;;;;;;;13.50;11.25;;;;;-0.02;72.99;99052.38;6326120;20;1831680;-54
2023/03/12 02:44:32;;;;;;;;;16.17;9.67;;;;;0.04;72.69;99059.25;6353354;20;1805559;-56
2023/03/12 02:47:02;;;;;;;;;13.00;10.00;;;;;0.20;71.25;99067.56;6297317;20;1831571;-56
2023/03/12 02:49:33;;;;;;;;;12.00;8.00;;;;;0.13;70.68;99072.19;6310202;20;2760684;-55
2023/03/12 02:52:03;;;;;;;;;10.00;9.00;;;;;0.12;70.43;99069.56;6298191;20;1823271;-55
2023/03/12 02:54:32;;;;;;;;;13.00;9.25;;;;;0.16;69.83;99085.28;6331743;20;1823336;-53
2023/03/12 02:57:00;;;;;;;;;15.50;11.00;;;;;0.09;69.50;99081.09;6316412;20;2789872;-55
2023/03/12 02:59:28;;;;;;;;;8.33;8.33;;;;;0.14;68.86;99084.47;6285755;20;3450413;-55
2023/03/12 03:01:59;;;;;;;;;9.00;9.00;;;;;0.11;68.65;99095.09;6336495;20;1820108;-52
2023/03/12 03:04:30;;;;;;;;;10.00;8.25;;;;;0.12;68.27;99096.81;6332013;20;1819173;-55
2023/03/12 03:06:59;;;;;;;;;13.25;9.00;;;;;0.27;68.21;99105.22;6334321;20;1832764;-54
2023/03/12 03:09:27;;;;;;;;;9.67;8.00;;;;;0.13;68.03;99102.97;6316604;20;3455596;-52
2023/03/12 03:11:54;;;;;;;;;20.00;13.00;;;;;0.09;67.76;99112.75;6316529;20;2523236;-53
2023/03/12 03:14:25;;;;;;;;;13.50;11.50;;;;;0.09;67.53;99115.41;6355444;20;1812560;-50
2023/03/12 03:16:54;;;;;;;;;12.00;12.00;;;;;0.04;67.93;99113.78;6302203;20;1822218;-54
2023/03/12 03:19:21;;;;;;;;;12.00;9.00;;;;;0.03;67.69;99114.69;6314582;20;2768020;-51
2023/03/12 03:21:49;;;;;;;;;9.33;8.00;;;;;0.14;67.35;99121.41;6283777;20;3468103;-51
2023/03/12 03:24:17;;;;;;;;;12.50;9.00;;;;;0.17;66.50;99123.09;6315996;20;2759715;-53
2023/03/12 03:26:45;;;;;;;;;11.00;8.50;;;;;0.14;67.12;99126.69;6284182;20;2764835;-51
2023/03/12 03:29:13;;;;;;;;;9.50;9.00;;;;;0.24;66.14;99142.25;6286620;20;2749325;-55
2023/03/12 03:31:42;;;;;;;;;13.25;9.25;;;;;0.18;65.46;99136.22;6333076;20;1825777;-52
2023/03/12 03:34:11;;;;;;;;;8.50;8.50;;;;;0.17;65.37;99145.06;6334719;20;1827612;-55
2023/03/12 03:36:39;;;;;;;;;9.00;8.00;;;;;0.20;65.18;99152.91;6315176;20;2745044;-52
2023/03/12 03:39:07;;;;;;;;;12.00;8.00;;;;;0.30;64.83;99152.66;6333374;20;1827588;-55
2023/03/12 03:41:36;;;;;;;;;11.75;8.25;;;;;0.37;65.47;99154.19;6332667;20;1818024;-54
2023/03/12 03:44:07;;;;;;;;;10.00;10.00;;;;;0.33;65.03;99153.41;6354707;20;2508642;-54
2023/03/12 03:46:34;;;;;;;;;13.00;10.00;;;;;0.25;64.72;99154.56;6285676;20;2770083;-55
2023/03/12 03:49:03;;;;;;;;;9.50;8.00;;;;;0.33;64.62;99157.84;6335444;20;1811868;-55
2023/03/12 03:51:31;;;;;;;;;8.00;8.00;;;;;0.24;65.31;99158.09;6315451;20;3450310;-56
2023/03/12 03:54:00;;;;;;;;;12.25;8.75;;;;;0.27;64.77;99155.38;6330786;20;1823067;-55
2023/03/12 03:56:28;;;;;;;;;8.75;8.75;;;;;0.31;65.17;99159.66;6334643;20;1815925;-51
2023/03/12 03:58:58;;;;;;;;;6.00;6.00;;;;;0.31;64.24;99159.66;6335674;20;1823257;-51
2023/03/12 04:01:26;;;;;;;;;6.00;6.00;;;;;0.16;64.61;99146.00;6315796;20;3458607;-55
2023/03/12 04:03:53;;;;;;;;;8.00;8.00;;;;;0.38;64.73;99140.94;6315711;20;3459699;-51
2023/03/12 04:06:22;;;;;;;;;8.67;8.00;;;;;0.13;65.05;99143.44;6339610;20;1819080;-56
2023/03/12 04:08:51;;;;;;;;;12.00;8.25;;;;;0.20;64.55;99149.41;6331910;20;1826402;-52
2023/03/12 04:11:21;;;;;;;;;14.00;12.50;;;;;0.22;64.37;99155.50;6312015;20;2793999;-53
2023/03/12 04:13:51;;;;;;;;;19.00;16.00;;;;;0.13;64.48;99161.91;6304550;20;2823208;-56
2023/03/12 04:16:20;;;;;;;;;24.33;17.00;;;;;0.17;64.54;99158.28;6283023;20;3587752;-53
2023/03/12 04:18:50;;;;;;;;;18.20;15.00;;;;;0.20;64.19;99158.19;6337112;20;2821095;-54
2023/03/12 04:21:18;;;;;;;;;16.00;14.00;;;;;0.26;64.50;99162.41;6283167;20;2813821;-52
2023/03/12 04:23:45;;;;;;;;;16.50;13.00;;;;;0.27;64.01;99158.03;6280580;20;2820042;-54
2023/03/12 04:26:13;;;;;;;;;12.00;11.00;;;;;0.21;64.70;99165.22;6282705;20;2779473;-53
2023/03/12 04:28:41;;;;;;;;;11.50;9.00;;;;;0.05;65.45;99174.44;6283600;20;2758628;-53
2023/03/12 04:31:11;;;;;;;;;10.00;10.00;;;;;0.11;65.44;99200.69;6282046;20;2762805;-55
2023/03/12 04:33:40;;;;;;;;;8.00;8.00;;;;;0.20;65.15;99208.34;6318123;20;3440886;-55
2023/03/12 04:36:10;;;;;;;;;10.00;9.00;;;;;0.28;65.09;99215.19;6329997;20;1831687;-51
2023/03/12 04:38:38;;;;;;;;;10.67;9.00;;;;;0.39;64.54;99221.03;6311063;20;3478386;-54
2023/03/12 04:41:13;;;;;;;;;15.50;12.00;;;;;0.37;64.87;99233.41;6311724;20;2796226;-54
2023/03/12 04:43:41;;;;;;;;;12.50;12.00;;;;;0.47;65.12;99242.81;6277093;20;2796154;-52
2023/03/12 04:46:09;;;;;;;;;19.00;14.00;;;;;0.40;65.22;99244.75;6279572;20;2792013;-51
2023/03/12 04:48:37;;;;;;;;;16.50;12.50;;;;;0.46;65.78;99256.06;6281906;20;2795457;-53
2023/03/12 04:51:05;;;;;;;;;18.00;12.00;;;;;0.50;65.37;99258.59;6280221;20;2798400;-52
2023/03/12 04:53:33;;;;;;;;;13.00;13.00;;;;;0.51;65.86;99257.69;6280946;20;2796132;-52
2023/03/12 04:56:03;;;;;;;;;9.25;8.75;;;;;0.46;65.87;99259.56;6324511;20;1814860;-54
2023/03/12 04:58:31;;;;;;;;;12.50;12.00;;;;;0.48;66.45;99267.47;6282322;20;2791988;-52
2023/03/12 05:01:00;;;;;;;;;24.67;21.33;;;;;0.44;66.78;99256.09;6278813;20;3568981;-55
2023/03/12 05:03:29;;;;;;;;;20.33;18.00;;;;;0.45;67.66;99255.22;6312485;20;3549254;-48
2023/03/12 05:05:57;;;;;;;;;16.00;12.50;;;;;0.44;67.37;99262.25;6316046;20;2798197;-54
2023/03/12 05:08:25;;;;;;;;;13.00;9.00;;;;;0.32;67.74;99262.59;6279999;20;2758579;-54
2023/03/12 05:10:53;;;;;;;;;18.50;12.00;;;;;0.57;67.54;99268.06;6311636;20;2806660;-50
2023/03/12 05:13:22;;;;;;;;;31.67;28.00;;;;;0.52;67.79;99269.97;6280384;20;3587825;-50
2023/03/12 05:15:51;;;;;;;;;33.50;33.50;;;;;0.44;68.44;99277.22;6272488;20;2500364;-55
2023/03/12 05:18:20;;;;;;;;;31.00;24.50;;;;;0.47;68.24;99273.63;6280029;20;2500268;-51
2023/03/12 05:21:18;;;;;;;;;146.75;106.50;;;;;0.47;68.19;99287.69;6278083;20;4487753;-53
2023/03/12 05:23:48;;;;;;;;;49.50;43.50;;;;;0.51;68.25;99299.94;6277788;20;2849280;-55
2023/03/12 05:26:32;;;;;;;;;57.50;49.00;;;;;0.60;68.54;99302.31;6279806;20;2857561;-53
2023/03/12 05:29:03;;;;;;;;;10.00;5.25;;;;;0.74;67.94;99304.59;6300943;20;1844111;-52
2023/03/12 05:31:34;;;;;;;;;52.50;44.00;;;;;0.62;68.13;99310.19;6312367;20;2873321;-52
2023/03/12 05:34:04;;;;;;;;;49.67;41.33;;;;;0.50;68.87;99314.06;6281865;20;2863845;-54
2023/03/12 05:36:33;;;;;;;;;75.50;56.50;;;;;0.57;68.50;99304.19;6309761;20;2873314;-54
2023/03/12 05:39:02;;;;;;;;;52.50;42.50;;;;;0.40;68.82;99312.56;6281855;20;2871669;-53
2023/03/12 05:41:31;;;;;;;;;21.33;19.67;;;;;0.66;68.37;99311.88;6277783;20;3553390;-54
2023/03/12 05:43:59;;;;;;;;;27.00;24.00;;;;;0.44;68.44;99306.28;6313352;20;2821103;-53
2023/03/12 05:46:28;;;;;;;;;35.67;28.00;;;;;0.31;69.51;99320.72;6276806;20;3586708;-54
2023/03/12 05:48:56;;;;;;;;;48.50;38.00;;;;;0.40;69.65;99317.84;6278419;20;2500495;-55
2023/03/12 05:51:25;;;;;;;;;53.00;42.00;;;;;0.64;68.90;99324.25;6279526;20;2862772;-52
2023/03/12 05:53:54;;;;;;;;;48.50;40.50;;;;;1.96;65.04;99323.81;6278817;20;2852411;-50
2023/03/12 05:56:24;;;;;;;;;88.67;64.67;;;;;2.32;62.65;99334.13;6278907;20;3651344;-51
2023/03/12 05:58:52;;;;;;;;;52.00;41.50;;;;;2.30;61.61;99338.59;6312868;20;2881624;-53
2023/03/12 06:01:27;;;;;;;;;28.00;22.50;;;;;4.30;56.54;99342.59;6277149;20;2847212;-55
2023/03/12 06:03:55;;;;;;;;;20.50;19.00;;;;;3.67;56.45;99353.09;6280641;20;2820078;-57
2023/03/12 06:06:25;;;;;;;;;17.67;17.67;;;;;4.20;55.93;99354.53;6278376;20;3554577;-56
2023/03/12 06:08:53;;;;;;;;;24.50;22.00;;;;;4.25;56.01;99359.69;6278815;20;2500343;-56
2023/03/12 06:11:21;;;;;;;;;17.33;15.67;;;;;5.50;52.12;99359.53;6279629;20;3542090;-54
2023/03/12 06:13:50;;;;;;;;;13.33;13.33;;;;;5.57;50.59;99361.91;6312133;20;3538787;-56
2023/03/12 06:16:26;;;;;;;;;16.60;14.80;;;;;6.29;49.41;99379.78;6335998;20;2820063;-55
2023/03/12 06:19:00;;;;;;;;;15.00;13.00;;;;;8.96;44.47;99381.38;6279423;20;3538137;-54
2023/03/12 06:21:33;;;;;;;;;15.00;12.67;;;;;10.18;40.80;99398.81;6308766;20;3537759;-57
2023/03/12 06:24:02;;;;;;;;;14.50;12.00;;;;;11.12;38.57;99405.09;6312511;20;2811864;-58
2023/03/12 06:26:30;;;;;;;;;17.33;17.33;;;;;11.05;36.94;99409.16;6279170;20;3557637;-56
2023/03/12 06:28:59;;;;;;;;;15.00;14.00;;;;;11.92;36.05;99425.56;6315042;20;2805567;-51
2023/03/12 06:31:27;;;;;;;;;16.50;12.00;;;;;11.03;37.15;99423.66;6317946;20;2803406;-57
2023/03/12 06:33:57;;;;;;;;;28.00;25.00;;;;;12.04;36.00;99425.56;6285406;20;2851287;-52
2023/03/12 06:36:24;;;;;;;;;14.00;14.00;;;;;11.96;34.83;99444.09;6317210;20;2774224;-54
2023/03/12 06:38:53;;;;;;;;;23.00;19.00;;;;;12.72;34.62;99447.56;6285728;20;2823371;-56
2023/03/12 06:41:24;;;;;;;;;19.00;17.50;;;;;12.47;34.93;99457.44;6281970;20;2498608;-57
2023/03/12 06:43:52;;;;;;;;;21.00;20.00;;;;;13.40;34.23;99459.50;6288223;20;2836783;-54
2023/03/12 06:46:21;;;;;;;;;20.50;16.50;;;;;13.18;34.36;99462.94;6282803;20;2837839;-57
2023/03/12 06:48:49;;;;;;;;;13.00;13.00;;;;;12.71;34.38;99468.22;6284755;20;3529437;-53
2023/03/12 06:51:18;;;;;;;;;16.00;13.67;;;;;13.29;33.79;99472.94;6315415;20;3544287;-56
2023/03/12 06:53:47;;;;;;;;;20.00;18.00;;;;;12.67;34.84;99473.97;6284568;20;3564872;-56
2023/03/12 06:56:15;;;;;;;;;17.00;16.50;;;;;14.27;32.16;99474.22;6287233;20;2822175;-57
2023/03/12 06:58:43;;;;;;;;;15.00;13.00;;;;;13.06;33.47;99474.66;6286846;20;2802477;-59
2023/03/12 07:01:12;;;;;;;;;13.00;13.00;;;;;13.59;34.61;99486.78;6312015;20;3523211;-53
2023/03/12 07:03:41;;;;;;;;;14.67;14.67;;;;;11.39;36.24;99474.03;6318513;20;3535732;-55
2023/03/12 07:06:21;;;;;;;;;12.00;11.00;;;;;12.94;34.41;99481.84;6288474;20;2798251;-55
2023/03/12 07:08:48;;;;;;;;;13.50;12.50;;;;;9.63;38.84;99480.91;6288519;20;2795077;-53
2023/03/12 07:11:17;;;;;;;;;19.50;18.50;;;;;10.31;38.95;99486.50;6287784;20;2833615;-57
2023/03/12 07:13:46;;;;;;;;;15.33;14.67;;;;;9.86;40.79;99491.06;6287224;20;3544023;-55
2023/03/12 07:16:15;;;;;;;;;16.00;13.00;;;;;9.36;41.36;99489.66;6283869;20;3530540;-56
2023/03/12 07:18:43;;;;;;;;;17.00;15.00;;;;;10.52;39.70;99489.63;6322145;20;2797206;-53
2023/03/12 07:21:11;;;;;;;;;18.00;16.50;;;;;9.30;40.24;99492.72;6288983;20;2826694;-57
2023/03/12 07:23:39;;;;;;;;;20.33;15.00;;;;;6.44;47.94;99479.53;6286586;20;3540950;-52
2023/03/12 07:26:08;;;;;;;;;21.33;15.67;;;;;5.50;50.64;99491.78;6284070;20;3552333;-55
2023/03/12 07:28:36;;;;;;;;;15.67;15.00;;;;;5.76;50.88;99503.94;6319267;20;3548198;-52
2023/03/12 07:31:06;;;;;;;;;17.33;15.33;;;;;5.39;52.20;99499.38;6316610;20;3540912;-53
2023/03/12 07:33:36;;;;;;;;;49.00;37.00;;;;;5.49;50.92;99493.56;6283586;20;3613795;-56
2023/03/12 07:36:07;;;;;;;;;65.67;52.67;;;;;5.82;50.82;99498.34;6316573;20;3619035;-56
2023/03/12 07:38:36;;;;;;;;;15.67;14.00;;;;;5.43;51.45;99490.34;6315718;20;3541941;-56
2023/03/12 07:41:05;;;;;;;;;20.67;19.67;;;;;5.98;50.36;99492.31;6315591;20;3554456;-55
2023/03/12 07:43:34;;;;;;;;;14.67;14.00;;;;;6.10;50.32;99507.75;6314898;20;3543003;-53
2023/03/12 07:46:02;;;;;;;;;16.50;16.00;;;;;5.43;50.46;99512.50;6285312;20;2819093;-56
2023/03/12 07:48:29;;;;;;;;;15.00;13.00;;;;;5.41;50.78;99492.19;6287090;20;2811731;-54
2023/03/12 07:50:58;;;;;;;;;17.33;15.33;;;;;6.37;48.94;99498.50;6280661;20;3549243;-52
2023/03/12 07:53:27;;;;;;;;;48.50;37.50;;;;;6.24;48.83;99505.34;6280474;20;2863898;-53
2023/03/12 07:55:55;;;;;;;;;22.00;17.00;;;;;5.79;49.05;99502.94;6280656;20;2500270;-55
2023/03/12 07:58:23;;;;;;;;;39.00;28.00;;;;;6.52;47.88;99512.03;6287022;20;2879495;-53
2023/03/12 08:00:52;;;;;;;;;21.50;21.00;;;;;6.13;48.04;99508.50;6282200;20;2500281;-52
2023/03/12 08:03:21;;;;;;;;;18.00;15.33;;;;;6.37;46.44;99509.16;6284490;20;3539859;-52
2023/03/12 08:06:00;;;;;;;;;24.50;21.00;;;;;6.07;46.21;99514.09;6315909;20;2846121;-54
2023/03/12 08:08:29;;;;;;;;;15.50;11.50;;;;;6.45;45.55;99507.91;6286778;20;2798209;-54
2023/03/12 08:11:00;;;;;;;;;12.80;12.60;;;;;6.58;45.21;99512.59;6307112;20;2808053;-52
2023/03/12 08:13:28;;;;;;;;;17.50;13.00;;;;;5.92;45.98;99517.44;6290637;20;2813854;-52
2023/03/12 08:15:57;;;;;;;;;16.00;14.67;;;;;6.43;45.17;99513.34;6283247;20;3551285;-54
2023/03/12 08:18:25;;;;;;;;;10.00;10.00;;;;;6.84;44.16;99520.28;6316327;20;2790914;-55
2023/03/12 08:20:54;;;;;;;;;37.00;35.50;;;;;7.19;43.49;99514.06;6282562;20;2496152;-53
2023/03/12 08:23:22;;;;;;;;;15.50;10.00;;;;;6.48;43.62;99521.97;6286898;20;2793017;-53
2023/03/12 08:25:52;;;;;;;;;8.50;7.25;;;;;6.16;45.48;99526.13;6306021;20;1816043;-55
2023/03/12 08:28:23;;;;;;;;;16.33;15.00;;;;;6.40;44.65;99520.59;6314835;20;3549611;-50
2023/03/12 08:30:59;;;;;;;;;13.14;11.00;;;;;6.88;43.09;99522.72;6357011;20;1810728;-53
2023/03/12 08:33:28;;;;;;;;;14.33;13.33;;;;;5.88;44.16;99529.19;6312970;20;2807637;-54
2023/03/12 08:35:56;;;;;;;;;9.50;9.50;;;;;6.25;43.49;99528.38;6315639;20;2769185;-50
2023/03/12 08:38:24;;;;;;;;;25.00;25.00;;;;;6.54;42.89;99523.50;6283777;20;2847250;-52
2023/03/12 08:41:00;;;;;;;;;16.67;14.00;;;;;7.23;43.14;99528.97;6314163;20;3544182;-55
2023/03/12 08:43:28;;;;;;;;;15.00;10.00;;;;;6.33;43.36;99531.56;6283645;20;2791970;-55
2023/03/12 08:46:02;;;;;;;;;14.00;10.00;;;;;6.31;42.75;99533.44;6285752;20;2792063;-55
2023/03/12 08:48:32;;;;;;;;;14.00;11.50;;;;;6.12;44.20;99532.56;6317254;20;2797161;-54
2023/03/12 08:51:03;;;;;;;;;13.00;9.50;;;;;6.53;42.95;99533.31;6282057;20;2769013;-56
2023/03/12 08:53:35;;;;;;;;;12.00;12.00;;;;;6.58;42.79;99530.38;6286459;20;3539833;-56
2023/03/12 08:56:05;;;;;;;;;15.00;15.00;;;;;7.01;42.85;99536.34;6310526;20;3540037;-56
2023/03/12 08:58:33;;;;;;;;;10.00;10.00;;;;;7.59;42.56;99543.22;6313484;20;2792015;-55
2023/03/12 09:01:01;;;;;;;;;10.50;10.50;;;;;7.98;42.81;99540.25;6281633;20;2794144;-56
2023/03/12 09:03:30;;;;;;;;;11.67;11.67;;;;;8.07;42.23;99542.41;6284762;20;2795143;-56
2023/03/12 09:06:15;;;;;;;;;14.00;14.00;;;;;7.88;41.72;99547.03;6316167;20;2808734;-52
2023/03/12 09:08:45;;;;;;;;;17.00;15.33;;;;;7.52;42.18;99542.66;6284256;20;3552377;-48
2023/03/12 09:11:14;;;;;;;;;15.50;11.00;;;;;6.88;41.00;99537.88;6311336;20;2798317;-56
2023/03/12 09:13:43;;;;;;;;;9.00;9.00;;;;;6.85;40.09;99541.56;6285345;20;2732596;-54
2023/03/12 09:16:31;;;;;;;;;14.33;14.33;;;;;6.85;40.88;99538.03;6313540;20;3539825;-53
2023/03/12 09:19:00;;;;;;;;;11.67;11.67;;;;;7.18;40.31;99533.66;6311928;20;2794111;-56
2023/03/12 09:21:30;;;;;;;;;15.00;13.00;;;;;6.78;42.81;99527.63;6340312;20;2791947;-54
2023/03/12 09:23:58;;;;;;;;;11.00;10.00;;;;;8.26;40.95;99534.25;6285575;20;2796120;-53
2023/03/12 09:26:27;;;;;;;;;11.60;10.40;;;;;7.91;40.92;99534.34;6309515;20;2790931;-53
2023/03/12 09:28:57;;;;;;;;;15.00;11.33;;;;;8.43;41.02;99546.75;6285021;20;3521218;-55
2023/03/12 09:31:25;;;;;;;;;11.00;11.00;;;;;7.87;39.56;99534.59;6308356;20;2785743;-53
2023/03/12 09:33:53;;;;;;;;;13.00;9.50;;;;;7.85;40.05;99536.50;6285153;20;2771731;-53
2023/03/12 09:36:22;;;;;;;;;13.00;12.00;;;;;8.00;41.80;99530.31;6278199;20;3523197;-51
2023/03/12 09:38:50;;;;;;;;;10.33;10.33;;;;;7.46;40.86;99532.28;6312981;20;2784722;-54
2023/03/12 09:41:38;;;;;;;;;15.00;13.67;;;;;7.74;42.13;99529.06;6310310;20;3533591;-50
2023/03/12 09:44:34;;;;;;;;;15.00;11.00;;;;;8.00;39.27;99534.81;6315237;20;2811842;-54
2023/03/12 09:47:22;;;;;;;;;0.00;0.00;;;;;7.80;37.89;99541.22;6285124;20;3410708;-49
2023/03/12 09:50:09;;;;;;;;;24.00;23.00;;;;;7.59;39.04;99536.06;6309038;20;3573186;-55
2023/03/12 09:52:56;;;;;;;;;13.67;10.67;;;;;7.76;38.88;99526.28;6308053;20;2780516;-50
2023/03/12 09:55:30;;;;;;;;;41.67;37.33;;;;;8.63;37.45;99534.09;6306409;20;3602348;-54
2023/03/12 09:57:58;;;;;;;;;14.50;13.00;;;;;8.27;37.44;99527.97;6281382;20;2815030;-51
2023/03/12 10:00:34;;;;;;;;;14.50;14.00;;;;;7.40;38.18;99524.59;6283351;20;2787894;-55
2023/03/12 10:03:48;;;;;;;;;62.00;51.50;;;;;7.47;38.83;99526.00;6283419;20;2855489;-55
2023/03/12 10:06:22;;;;;;;;;9.00;9.00;;;;;7.66;38.89;99528.56;6282830;20;2749233;-54
2023/03/12 10:09:21;;;;;;;;;10.00;4.00;;;;;7.52;39.56;99534.63;6280274;20;2762912;-54
2023/03/12 10:12:22;;;;;;;;;15.33;14.00;;;;;8.30;38.77;99532.31;6311169;20;3544038;-52
2023/03/12 10:16:13;;;;;;;;;16.00;15.00;;;;;8.12;39.43;99540.38;6314640;20;2812910;-54
2023/03/12 10:19:19;;;;;;;;;10.67;10.67;;;;;8.09;39.23;99545.03;6277403;20;2789897;-55
2023/03/12 10:22:16;;;;;;;;;11.67;11.00;;;;;7.88;38.76;99528.31;6311096;20;2792053;-52
2023/03/12 10:25:07;;;;;;;;;15.00;12.00;;;;;8.51;40.58;99533.81;6312566;20;2794021;-54
2023/03/12 10:27:41;;;;;;;;;18.00;16.00;;;;;8.24;39.22;99538.84;6282579;20;2627388;-53
2023/03/12 10:30:22;;;;;;;;;9.50;9.50;;;;;8.28;38.09;99528.84;6277775;20;2769415;-55
2023/03/12 10:33:00;;;;;;;;;8.50;8.50;;;;;9.12;37.60;99547.34;6285729;20;2751334;-52
2023/03/12 10:35:30;;;;;;;;;13.00;10.50;;;;;8.32;36.94;99535.72;6277889;20;2785737;-55
2023/03/12 10:38:10;;;;;;;;;20.33;19.00;;;;;8.49;37.24;99535.72;6277468;20;3571138;-54
2023/03/12 10:40:41;;;;;;;;;9.86;9.57;;;;;8.97;36.78;99539.25;6320111;20;1816448;-56
2023/03/12 10:43:09;;;;;;;;;13.00;10.50;;;;;8.50;36.04;99545.44;6310721;20;2786765;-55
2023/03/12 10:45:55;;;;;;;;;14.33;13.33;;;;;8.87;37.87;99532.69;6283818;20;2811824;-54
2023/03/12 10:48:25;;;;;;;;;11.00;9.00;;;;;8.89;35.16;99541.50;6313878;20;2760737;-55
2023/03/12 10:51:12;;;;;;;;;10.00;8.00;;;;;9.15;34.17;99542.69;6279397;20;2764856;-54
2023/03/12 10:53:46;;;;;;;;;10.00;7.00;;;;;9.27;32.40;99545.59;6284792;20;2762759;-54
2023/03/12 10:56:19;;;;;;;;;16.67;15.00;;;;;9.15;33.39;99539.16;6277468;20;3541040;-53
2023/03/12 10:58:53;;;;;;;;;13.00;11.67;;;;;8.64;36.65;99536.69;6313137;20;3527351;-55
2023/03/12 11:01:28;;;;;;;;;12.80;10.60;;;;;8.78;37.32;99542.09;6332966;20;2789918;-56
2023/03/12 11:04:25;;;;;;;;;9.00;9.00;;;;;8.48;38.28;99547.38;6285783;20;2737826;-56
2023/03/12 11:07:26;;;;;;;;;12.00;11.00;;;;;9.37;38.47;99544.09;6279852;20;2792065;-54
2023/03/12 11:10:46;;;;;;;;;12.67;11.00;;;;;8.78;38.06;99543.94;6310974;20;2796198;-52
2023/03/12 11:13:32;;;;;;;;;6.00;6.00;;;;;9.21;38.44;99530.75;6316862;20;2739216;-55
2023/03/12 11:16:16;;;;;;;;;11.00;11.00;;;;;9.38;36.99;99538.66;6320811;20;2786704;-56
2023/03/12 11:19:02;;;;;;;;;14.00;14.00;;;;;9.21;36.70;99530.75;6288310;20;2817119;-52
2023/03/12 11:21:35;;;;;;;;;13.50;13.00;;;;;9.76;37.45;99538.16;6315160;20;2786812;-51
2023/03/12 11:24:14;;;;;;;;;11.20;11.20;;;;;9.32;37.05;99539.03;6311154;20;2791485;-52
2023/03/12 11:27:34;;;;;;;;;15.67;12.00;;;;;9.38;37.76;99544.03;6283625;20;2809744;-54
2023/03/12 11:30:14;;;;;;;;;7.67;7.67;;;;;8.85;37.02;99537.28;6358259;20;1814699;-51
2023/03/12 11:32:47;;;;;;;;;18.00;14.67;;;;;9.51;38.46;99535.25;6286373;20;3544014;-51
2023/03/12 11:35:34;;;;;;;;;15.00;11.67;;;;;8.56;37.72;99529.09;6315146;20;3520149;-53
2023/03/12 11:39:01;;;;;;;;;11.00;9.50;;;;;8.61;37.39;99535.97;6313917;20;2787885;-56
2023/03/12 11:42:45;;;;;;;;;12.50;12.50;;;;;9.47;37.17;99539.91;6286440;20;2794011;-52